Time;durP1;ratioP1;P1;durP2;ratioP2;P2;SDS_P1;SDS_P2;PMS_P1;PMS_P2;Temp;Humidity;BMP_temperature;BMP_pressure;BME280_temperature;BME280_humidity;BME280_pressure;Samples;Min_cycle;Max_cycle;Signal;HPM_P1;HPM_P2
2021/12/06 00:00:24;;;;;;;21.00;12.27;;;4.00;99.90;;;;;;5072220;28;20032;-62
2021/12/06 00:02:52;;;;;;;15.75;10.20;;;4.00;99.90;;;;;;5071607;28;20024;-62
2021/12/06 00:05:18;;;;;;;15.27;10.35;;;4.00;99.90;;;;;;5072231;28;20078;-62
2021/12/06 00:07:44;;;;;;;14.15;10.20;;;4.00;99.90;;;;;;5071258;28;20036;-61
2021/12/06 00:10:12;;;;;;;14.23;9.35;;;4.00;99.90;;;;;;5072062;28;20029;-61
2021/12/06 00:12:39;;;;;;;15.30;9.90;;;4.00;99.90;;;;;;5071469;28;20177;-59
2021/12/06 00:15:05;;;;;;;11.40;9.23;;;4.00;99.90;;;;;;5071951;28;20043;-61
2021/12/06 00:17:31;;;;;;;13.07;8.85;;;4.00;99.90;;;;;;5071963;28;20036;-61
2021/12/06 00:19:57;;;;;;;14.85;10.27;;;4.00;99.90;;;;;;5071425;28;20493;-61
2021/12/06 00:22:23;;;;;;;15.65;10.10;;;4.00;99.90;;;;;;5072018;28;20039;-61
2021/12/06 00:24:54;;;;;;;13.85;8.93;;;4.00;99.90;;;;;;5071346;28;20389;-61
2021/12/06 00:27:22;;;;;;;12.70;8.90;;;4.00;99.90;;;;;;5071971;28;20028;-62
2021/12/06 00:29:48;;;;;;;12.70;8.50;;;4.00;99.90;;;;;;5071068;28;20146;-62
2021/12/06 00:32:14;;;;;;;13.80;8.93;;;4.00;99.90;;;;;;5071836;28;20105;-62
2021/12/06 00:34:41;;;;;;;12.32;8.48;;;3.90;99.90;;;;;;5073204;28;20032;-62
2021/12/06 00:39:45;;;;;;;10.32;7.85;;;3.90;99.90;;;;;;5075283;28;20024;-62
2021/12/06 00:42:10;;;;;;;10.07;7.75;;;3.90;99.90;;;;;;5075815;28;20021;-62
2021/12/06 00:44:36;;;;;;;10.23;8.15;;;3.90;99.90;;;;;;5075480;28;20033;-61
2021/12/06 00:47:03;;;;;;;10.75;7.47;;;3.90;99.90;;;;;;5075474;28;20071;-62
2021/12/06 00:49:28;;;;;;;8.10;6.93;;;3.90;99.90;;;;;;5075667;28;20025;-62
2021/12/06 00:51:54;;;;;;;8.50;7.25;;;3.90;99.90;;;;;;5074956;28;20090;-61
2021/12/06 00:54:20;;;;;;;7.78;6.75;;;3.80;99.90;;;;;;5077958;28;20093;-61
2021/12/06 00:56:45;;;;;;;9.63;7.03;;;3.80;99.90;;;;;;5074881;28;20453;-61
2021/12/06 00:59:11;;;;;;;11.98;6.93;;;3.80;99.90;;;;;;5075484;28;20507;-62
2021/12/06 01:01:37;;;;;;;10.20;6.30;;;3.80;99.90;;;;;;5075437;28;20434;-61
2021/12/06 01:04:03;;;;;;;9.02;6.68;;;3.80;99.90;;;;;;5075085;28;20470;-61
2021/12/06 01:06:31;;;;;;;8.25;5.70;;;3.80;99.90;;;;;;5075319;28;20035;-62
2021/12/06 01:08:57;;;;;;;6.18;5.20;;;3.70;99.90;;;;;;5074720;28;20070;-62
2021/12/06 01:11:22;;;;;;;6.32;5.03;;;3.70;99.90;;;;;;5075329;28;20025;-61
2021/12/06 01:13:48;;;;;;;5.82;4.75;;;3.70;99.90;;;;;;5074404;28;20450;-62
2021/12/06 01:16:14;;;;;;;5.35;4.78;;;3.60;99.90;;;;;;5075019;28;20528;-62
2021/12/06 01:18:39;;;;;;;5.68;4.38;;;3.60;99.90;;;;;;5075108;28;20119;-62
2021/12/06 01:21:25;;;;;;;5.80;4.30;;;3.60;99.90;;;;;;5074402;28;20446;-62
2021/12/06 01:23:56;;;;;;;5.57;4.93;;;3.60;99.90;;;;;;5074477;28;20408;-62
2021/12/06 01:27:00;;;;;;;;;;;3.50;99.90;;;;;;5075283;28;20036;-62
2021/12/06 01:32:01;;;;;;;5.10;3.72;;;3.50;99.90;;;;;;5074306;28;20496;-62
2021/12/06 01:39:55;;;;;;;4.47;3.38;;;3.40;99.90;;;;;;5074185;28;20544;-62
2021/12/06 01:42:21;;;;;;;3.92;3.42;;;3.40;99.90;;;;;;5074735;28;20099;-62
2021/12/06 01:44:51;;;;;;;4.88;3.50;;;3.40;99.90;;;;;;5073558;28;20099;-62
2021/12/06 01:47:29;;;;;;;4.45;3.40;;;3.40;99.90;;;;;;5073743;28;20382;-62
2021/12/06 01:49:59;;;;;;;3.63;3.30;;;3.40;99.90;;;;;;5077371;28;20024;-61
2021/12/06 01:52:28;;;;;;;5.32;3.25;;;3.40;99.90;;;;;;5074832;28;20533;-61
2021/12/06 01:54:55;;;;;;;3.30;2.97;;;3.40;99.90;;;;;;5073552;28;20029;-61
2021/12/06 01:57:23;;;;;;;4.65;3.22;;;3.40;99.90;;;;;;5074322;28;20037;-61
2021/12/06 01:59:49;;;;;;;4.28;3.13;;;3.40;99.90;;;;;;5073333;28;20058;-61
2021/12/06 02:02:15;;;;;;;5.22;3.75;;;3.40;99.90;;;;;;5074294;28;20032;-61
2021/12/06 02:04:42;;;;;;;5.82;3.60;;;3.40;99.90;;;;;;5074209;28;20107;-60
2021/12/06 02:07:15;;;;;;;4.63;3.80;;;3.30;99.90;;;;;;5073603;28;20025;-61
2021/12/06 02:09:44;;;;;;;4.15;3.58;;;3.40;99.90;;;;;;5074193;28;20028;-62
2021/12/06 02:12:11;;;;;;;4.20;3.80;;;3.30;99.90;;;;;;5073458;28;20409;-62
2021/12/06 02:14:58;;;;;;;4.30;3.70;;;3.30;99.90;;;;;;5074010;28;20032;-62
2021/12/06 02:17:29;;;;;;;4.25;3.85;;;3.30;99.90;;;;;;5074014;28;20063;-62
2021/12/06 02:20:03;;;;;;;4.00;3.60;;;3.30;99.90;;;;;;5073388;28;20035;-62
2021/12/06 02:22:30;;;;;;;4.32;3.92;;;3.30;99.90;;;;;;5073992;28;20020;-62
2021/12/06 02:24:57;;;;;;;4.15;3.75;;;3.30;99.90;;;;;;5073145;28;20032;-66
2021/12/06 02:27:28;;;;;;;6.38;3.97;;;3.30;99.90;;;;;;5073764;28;20032;-62
2021/12/06 02:29:57;;;;;;;5.63;4.47;;;3.30;99.90;;;;;;5073346;28;20123;-60
2021/12/06 02:32:23;;;;;;;5.38;4.43;;;3.20;99.90;;;;;;5073686;28;20457;-62
2021/12/06 02:34:52;;;;;;;6.20;4.70;;;3.30;99.90;;;;;;5073370;28;20107;-63
2021/12/06 02:37:22;;;;;;;5.10;4.15;;;3.30;99.90;;;;;;5073497;28;20037;-62
2021/12/06 02:39:48;;;;;;;5.93;4.47;;;3.30;99.90;;;;;;5073236;28;20028;-62
2021/12/06 02:42:15;;;;;;;7.57;4.72;;;3.20;99.90;;;;;;5073268;28;20111;-61
2021/12/06 02:44:43;;;;;;;4.78;4.25;;;3.20;99.90;;;;;;5073371;28;20036;-61
2021/12/06 02:47:09;;;;;;;5.47;4.70;;;3.20;99.90;;;;;;5073270;28;20067;-61
2021/12/06 02:49:35;;;;;;;6.55;4.47;;;3.20;99.90;;;;;;5081849;28;20020;-62
2021/12/06 02:52:02;;;;;;;6.68;4.93;;;3.20;99.90;;;;;;5092940;28;20529;-62
2021/12/06 02:54:28;;;;;;;6.65;4.63;;;3.20;99.90;;;;;;5093570;28;20016;-62
2021/12/06 02:59:44;;;;;;;7.65;5.25;;;3.20;99.90;;;;;;5093521;28;20066;-61
2021/12/06 03:02:13;;;;;;;5.80;5.22;;;3.20;99.90;;;;;;5092375;28;20496;-61
2021/12/06 03:04:40;;;;;;;6.65;4.85;;;3.20;99.90;;;;;;5091898;28;20457;-61
2021/12/06 03:07:07;;;;;;;5.82;5.22;;;3.20;99.90;;;;;;5092630;28;20048;-61
2021/12/06 03:09:37;;;;;;;5.90;5.30;;;3.20;99.90;;;;;;5093195;28;20020;-61
2021/12/06 03:12:16;;;;;;;6.75;5.90;;;3.20;99.90;;;;;;5092462;28;20035;-61
2021/12/06 03:14:50;;;;;;;7.13;5.32;;;3.20;99.90;;;;;;5093149;28;20031;-61
2021/12/06 03:17:19;;;;;;;6.00;5.35;;;3.20;99.90;;;;;;5092456;28;20432;-61
2021/12/06 03:19:47;;;;;;;6.72;5.75;;;3.20;99.90;;;;;;5093066;28;20024;-61
2021/12/06 03:22:15;;;;;;;6.95;5.90;;;3.20;99.90;;;;;;5092460;28;20020;-60
2021/12/06 03:24:42;;;;;;;7.85;6.00;;;3.30;99.90;;;;;;5092873;28;20051;-61
2021/12/06 03:27:07;;;;;;;7.32;6.20;;;3.20;99.90;;;;;;5092314;28;20020;-61
2021/12/06 03:29:34;;;;;;;7.70;6.68;;;3.30;99.90;;;;;;5092705;28;20024;-61
2021/12/06 03:32:00;;;;;;;8.02;6.55;;;3.30;99.90;;;;;;5092377;28;20111;-65
2021/12/06 03:34:26;;;;;;;10.52;6.28;;;3.30;99.90;;;;;;5092816;28;20039;-61
2021/12/06 03:36:54;;;;;;;9.02;7.15;;;3.40;99.90;;;;;;5092325;28;20115;-61
2021/12/06 03:39:24;;;;;;;9.75;7.93;;;3.30;99.90;;;;;;5092407;28;20468;-61
2021/12/06 03:41:52;;;;;;;9.88;8.23;;;3.30;99.90;;;;;;5092628;28;20476;-61
2021/12/06 03:44:20;;;;;;;11.00;8.18;;;3.40;99.90;;;;;;5091865;28;20095;-61
2021/12/06 03:46:51;;;;;;;9.20;8.27;;;3.40;99.90;;;;;;5092512;28;20048;-61
2021/12/06 03:49:17;;;;;;;11.75;8.55;;;3.40;99.90;;;;;;5091720;28;20544;-61
2021/12/06 03:51:44;;;;;;;12.15;9.32;;;3.40;99.90;;;;;;5085644;28;20028;-61
2021/12/06 03:54:13;;;;;;;11.48;9.10;;;3.40;99.90;;;;;;5070313;28;20376;-61
2021/12/06 03:56:40;;;;;;;13.77;10.18;;;3.40;99.90;;;;;;5072368;28;20213;-61
2021/12/06 03:59:07;;;;;;;11.50;9.52;;;3.50;99.90;;;;;;5071457;28;20476;-61
2021/12/06 04:01:33;;;;;;;10.85;9.45;;;3.40;99.90;;;;;;5072077;28;20032;-61
2021/12/06 04:04:01;;;;;;;12.02;10.05;;;3.50;99.90;;;;;;5071509;28;20028;-61
2021/12/06 04:06:27;;;;;;;12.65;10.30;;;3.50;99.90;;;;;;5072176;28;20028;-61
2021/12/06 04:08:52;;;;;;;11.55;10.18;;;3.50;99.90;;;;;;5071557;28;20033;-61
2021/12/06 04:11:18;;;;;;;13.55;10.98;;;3.40;99.90;;;;;;5071292;28;20097;-61
2021/12/06 04:13:44;;;;;;;14.77;11.00;;;3.40;99.90;;;;;;5080052;28;20119;-61
2021/12/06 04:16:10;;;;;;;15.80;11.38;;;3.40;99.90;;;;;;5080489;28;20032;-61
2021/12/06 04:18:36;;;;;;;14.43;11.32;;;3.40;99.90;;;;;;5081469;28;20024;-61
2021/12/06 04:21:04;;;;;;;14.00;11.60;;;3.40;99.90;;;;;;5082203;28;20468;-60
2021/12/06 04:23:30;;;;;;;14.85;11.63;;;3.40;99.90;;;;;;5080992;28;20028;-61
2021/12/06 04:25:56;;;;;;;15.32;12.20;;;3.40;99.90;;;;;;5088947;28;20091;-61
2021/12/06 04:28:21;;;;;;;14.93;12.93;;;3.40;99.90;;;;;;5091779;28;20051;-61
2021/12/06 04:30:49;;;;;;;15.48;12.70;;;3.40;99.90;;;;;;5092054;28;20024;-61
2021/12/06 04:33:15;;;;;;;13.85;12.05;;;3.40;99.90;;;;;;5091765;28;20043;-60
2021/12/06 04:35:41;;;;;;;15.63;13.05;;;3.40;99.90;;;;;;5091996;28;20042;-61
2021/12/06 04:38:08;;;;;;;15.10;13.50;;;3.40;99.90;;;;;;5091293;28;20078;-60
2021/12/06 04:40:35;;;;;;;16.92;13.88;;;3.40;99.90;;;;;;5091957;28;20032;-61
2021/12/06 04:43:02;;;;;;;18.50;14.48;;;3.40;99.90;;;;;;5088876;28;20020;-61
2021/12/06 04:45:28;;;;;;;19.33;14.25;;;3.50;99.90;;;;;;5091456;28;20044;-61
2021/12/06 04:47:55;;;;;;;22.05;15.73;;;3.40;99.90;;;;;;5091433;28;20409;-61
2021/12/06 04:50:26;;;;;;;16.45;14.70;;;3.50;99.90;;;;;;5089852;28;20397;-61
2021/12/06 04:52:54;;;;;;;20.20;15.30;;;3.50;99.90;;;;;;5073763;28;20025;-61
2021/12/06 04:55:28;;;;;;;19.63;15.35;;;3.40;99.90;;;;;;5070804;28;20033;-61
2021/12/06 04:57:55;;;;;;;20.73;15.90;;;3.50;99.90;;;;;;5071266;28;20127;-61
2021/12/06 05:00:30;;;;;;;20.35;16.30;;;3.50;99.90;;;;;;5085316;28;20258;-61
2021/12/06 05:02:56;;;;;;;20.08;15.82;;;3.50;99.90;;;;;;5091679;28;20051;-61
2021/12/06 05:05:35;;;;;;;17.52;14.75;;;3.50;99.90;;;;;;5090767;28;20035;-61
2021/12/06 05:08:15;;;;;;;21.48;15.93;;;3.50;99.90;;;;;;5091839;28;20430;-62
2021/12/06 05:10:43;;;;;;;20.20;16.55;;;3.60;99.90;;;;;;5091622;28;20051;-62
2021/12/06 05:13:27;;;;;;;20.40;15.73;;;3.50;99.90;;;;;;5090958;28;20032;-62
2021/12/06 05:15:53;;;;;;;22.98;15.60;;;3.60;99.90;;;;;;5091421;28;20122;-62
2021/12/06 05:18:19;;;;;;;20.88;15.20;;;3.60;99.90;;;;;;5090608;28;20122;-62
2021/12/06 05:20:45;;;;;;;22.40;14.63;;;3.60;99.90;;;;;;5093743;28;20024;-62
2021/12/06 05:23:11;;;;;;;19.55;14.60;;;3.60;99.90;;;;;;5094568;28;20028;-62
2021/12/06 05:25:37;;;;;;;19.10;15.23;;;3.60;99.90;;;;;;5094835;28;20024;-62
2021/12/06 05:28:04;;;;;;;20.05;16.08;;;3.60;99.90;;;;;;5094468;28;20123;-63
2021/12/06 05:30:31;;;;;;;22.10;14.98;;;3.60;99.90;;;;;;5095115;28;20357;-62
2021/12/06 05:32:58;;;;;;;19.33;14.85;;;3.60;99.90;;;;;;5095189;28;20046;-62
2021/12/06 05:35:24;;;;;;;21.38;14.77;;;3.60;99.90;;;;;;5094350;28;20039;-62
2021/12/06 05:37:55;;;;;;;19.60;14.45;;;3.60;99.90;;;;;;5094738;28;20391;-62
2021/12/06 05:40:25;;;;;;;21.33;14.00;;;3.60;99.90;;;;;;5094612;28;20069;-62
2021/12/06 05:42:51;;;;;;;20.05;15.13;;;3.70;99.90;;;;;;5094591;28;20028;-62
2021/12/06 05:45:19;;;;;;;17.67;14.30;;;3.60;99.90;;;;;;5090647;28;20048;-62
2021/12/06 05:47:45;;;;;;;20.73;14.00;;;3.70;99.90;;;;;;5094457;28;20035;-62
2021/12/06 05:50:16;;;;;;;21.40;15.00;;;3.60;99.90;;;;;;5090338;28;20021;-63
2021/12/06 05:52:42;;;;;;;20.63;15.48;;;3.60;99.90;;;;;;5080165;28;20460;-61
2021/12/06 05:55:09;;;;;;;24.60;14.68;;;3.60;99.90;;;;;;5094379;28;20036;-61
2021/12/06 05:57:36;;;;;;;18.77;14.57;;;3.60;99.90;;;;;;5078005;28;20470;-61
2021/12/06 06:00:06;;;;;;;23.73;14.85;;;3.60;99.90;;;;;;5089769;28;20030;-61
2021/12/06 06:02:31;;;;;;;21.75;13.50;;;3.60;99.90;;;;;;5075091;28;20095;-61
2021/12/06 06:04:57;;;;;;;22.73;15.13;;;3.60;99.90;;;;;;5076331;28;20044;-61
2021/12/06 06:07:23;;;;;;;24.85;15.43;;;3.60;99.90;;;;;;5072331;28;20051;-62
2021/12/06 06:09:48;;;;;;;25.50;16.15;;;3.60;99.90;;;;;;5072889;28;20350;-62
2021/12/06 06:12:14;;;;;;;23.25;15.10;;;3.60;99.90;;;;;;5072189;28;20043;-62
2021/12/06 06:14:40;;;;;;;21.88;14.32;;;3.70;99.90;;;;;;5073095;28;20063;-61
2021/12/06 06:17:12;;;;;;;23.17;14.20;;;3.70;99.90;;;;;;5072700;28;20055;-62
2021/12/06 06:19:45;;;;;;;19.73;13.98;;;3.70;99.90;;;;;;5073182;28;20356;-61
2021/12/06 06:22:11;;;;;;;20.60;13.63;;;3.70;99.90;;;;;;5073154;28;20096;-62
2021/12/06 06:24:37;;;;;;;23.33;14.07;;;3.70;99.90;;;;;;5073731;28;20025;-62
2021/12/06 06:27:03;;;;;;;20.67;14.70;;;3.70;99.90;;;;;;5073791;28;20432;-62
2021/12/06 06:29:29;;;;;;;24.77;13.98;;;3.70;99.90;;;;;;5072998;28;20465;-63
2021/12/06 06:31:55;;;;;;;21.95;14.40;;;3.70;99.90;;;;;;5072832;28;20034;-62
2021/12/06 06:34:21;;;;;;;21.35;14.65;;;3.70;99.90;;;;;;5073171;28;20028;-62
2021/12/06 06:36:47;;;;;;;22.13;14.93;;;3.70;99.90;;;;;;5073710;28;20028;-62
2021/12/06 06:39:13;;;;;;;16.40;13.00;;;3.70;99.90;;;;;;5072948;28;20089;-62
2021/12/06 06:41:39;;;;;;;20.33;13.82;;;3.70;99.90;;;;;;5073515;28;20377;-62
2021/12/06 06:44:06;;;;;;;22.30;14.85;;;3.70;99.90;;;;;;5073487;28;20029;-62
2021/12/06 06:46:32;;;;;;;24.88;14.68;;;3.70;99.90;;;;;;5078019;28;20070;-62
2021/12/06 06:48:58;;;;;;;23.25;14.82;;;3.70;99.90;;;;;;5093503;28;20035;-62
2021/12/06 06:51:27;;;;;;;19.85;14.85;;;3.70;99.90;;;;;;5092570;28;20452;-62
2021/12/06 06:53:52;;;;;;;23.65;15.48;;;3.70;99.90;;;;;;5093484;28;20024;-62
2021/12/06 06:56:18;;;;;;;22.63;15.13;;;3.80;99.90;;;;;;5092714;28;20081;-62
2021/12/06 06:58:44;;;;;;;25.70;15.15;;;3.80;99.90;;;;;;5093466;28;20028;-62
2021/12/06 07:01:10;;;;;;;22.73;15.45;;;3.80;99.90;;;;;;5093152;28;20062;-62
2021/12/06 07:03:36;;;;;;;22.13;15.50;;;3.80;99.90;;;;;;5093295;28;20445;-62
2021/12/06 07:06:03;;;;;;;24.50;16.45;;;3.90;99.90;;;;;;5093281;28;20032;-62
2021/12/06 07:08:29;;;;;;;21.35;13.95;;;3.90;99.90;;;;;;5092626;28;20107;-62
2021/12/06 07:10:55;;;;;;;19.77;14.65;;;3.90;99.90;;;;;;5093242;28;20443;-62
2021/12/06 07:13:22;;;;;;;25.88;15.35;;;3.90;99.90;;;;;;5092422;28;20024;-62
2021/12/06 07:15:49;;;;;;;24.30;14.82;;;3.90;99.90;;;;;;5093051;28;20519;-62
2021/12/06 07:18:14;;;;;;;24.63;15.30;;;3.90;99.90;;;;;;5092078;28;20032;-62
2021/12/06 07:20:40;;;;;;;21.35;15.63;;;3.90;99.90;;;;;;5093053;28;20336;-62
2021/12/06 07:23:06;;;;;;;24.80;15.63;;;3.90;99.90;;;;;;5093047;28;20043;-62
2021/12/06 07:25:33;;;;;;;22.52;16.35;;;3.90;99.90;;;;;;5092239;28;20035;-62
2021/12/06 07:28:00;;;;;;;21.98;15.55;;;3.90;99.90;;;;;;5092718;28;20036;-62
2021/12/06 07:30:27;;;;;;;23.23;15.48;;;3.90;99.90;;;;;;5092529;28;20038;-64
2021/12/06 07:32:54;;;;;;;25.10;16.08;;;3.90;99.90;;;;;;5092743;28;20035;-62
2021/12/06 07:35:20;;;;;;;23.38;16.98;;;3.90;99.90;;;;;;5092237;28;20162;-63
2021/12/06 07:37:46;;;;;;;26.63;16.00;;;3.80;99.90;;;;;;5093154;28;20032;-62
2021/12/06 07:40:14;;;;;;;23.42;16.92;;;3.80;99.90;;;;;;5092326;28;20387;-62
2021/12/06 07:42:40;;;;;;;24.15;16.80;;;3.90;99.90;;;;;;5092580;28;20063;-62
2021/12/06 07:45:08;;;;;;;24.38;16.23;;;3.80;99.90;;;;;;5078771;28;20110;-62
2021/12/06 07:47:37;;;;;;;25.10;16.13;;;3.90;99.90;;;;;;5071946;28;20040;-62
2021/12/06 07:50:06;;;;;;;21.42;15.75;;;3.90;99.90;;;;;;5072465;28;20021;-61
2021/12/06 07:52:32;;;;;;;23.75;16.08;;;3.90;99.90;;;;;;5071300;28;20020;-62
2021/12/06 07:54:59;;;;;;;21.00;15.15;;;3.90;99.90;;;;;;5072180;28;20074;-61
2021/12/06 07:57:27;;;;;;;21.30;16.50;;;3.90;99.90;;;;;;5071559;28;20036;-61
2021/12/06 07:59:52;;;;;;;27.67;16.17;;;3.90;99.90;;;;;;5070901;28;20391;-61
2021/12/06 08:02:18;;;;;;;24.13;16.92;;;3.90;99.90;;;;;;5071406;28;20048;-61
2021/12/06 08:04:47;;;;;;;24.17;15.68;;;3.90;99.90;;;;;;5072062;28;20099;-61
2021/12/06 08:07:13;;;;;;;22.33;15.95;;;3.90;99.90;;;;;;5071929;28;20020;-62
2021/12/06 08:09:39;;;;;;;22.83;16.35;;;4.00;99.90;;;;;;5071481;28;20111;-61
2021/12/06 08:12:05;;;;;;;24.85;16.35;;;4.00;99.90;;;;;;5071713;28;20132;-61
2021/12/06 08:14:30;;;;;;;22.00;16.55;;;4.00;99.90;;;;;;5071591;28;20369;-61
2021/12/06 08:16:57;;;;;;;23.30;16.73;;;4.00;99.90;;;;;;5072017;28;20024;-61
2021/12/06 08:19:23;;;;;;;26.60;17.50;;;4.00;99.90;;;;;;5071122;28;20388;-62
2021/12/06 08:21:48;;;;;;;25.00;17.10;;;4.10;99.90;;;;;;5072072;28;20116;-61
2021/12/06 08:24:15;;;;;;;24.52;17.08;;;4.10;99.90;;;;;;5071933;28;20021;-61
2021/12/06 08:26:43;;;;;;;25.40;17.08;;;4.10;99.90;;;;;;5071312;28;20029;-62
2021/12/06 08:29:27;;;;;;;23.10;16.00;;;4.10;99.90;;;;;;5070658;28;20043;-61
2021/12/06 08:31:53;;;;;;;21.75;16.60;;;4.20;99.90;;;;;;5071646;28;20028;-61
2021/12/06 08:34:18;;;;;;;23.13;16.00;;;4.20;99.90;;;;;;5071498;28;20489;-63
2021/12/06 08:36:44;;;;;;;22.40;16.13;;;4.20;99.90;;;;;;5071592;28;20055;-62
2021/12/06 08:39:10;;;;;;;23.88;17.83;;;4.20;99.90;;;;;;5071340;28;20082;-61
2021/12/06 08:41:36;;;;;;;22.58;16.33;;;4.30;99.90;;;;;;5071129;28;20476;-61
2021/12/06 08:44:03;;;;;;;25.20;16.90;;;4.30;99.90;;;;;;5071612;28;20024;-61
2021/12/06 08:46:36;;;;;;;26.55;15.88;;;4.30;99.90;;;;;;5070999;28;20053;-61
2021/12/06 08:49:05;;;;;;;25.60;17.42;;;4.30;99.90;;;;;;5071929;28;20423;-61
2021/12/06 08:51:34;;;;;;;21.65;15.35;;;4.40;99.90;;;;;;5070871;28;20067;-60
2021/12/06 08:54:03;;;;;;;20.52;14.75;;;4.40;99.90;;;;;;5071407;28;20432;-61
2021/12/06 08:56:29;;;;;;;22.55;16.15;;;4.50;99.90;;;;;;5076931;28;20418;-61
2021/12/06 08:58:57;;;;;;;22.27;16.17;;;4.50;99.90;;;;;;5074821;28;20481;-61
2021/12/06 09:01:24;;;;;;;21.00;14.77;;;4.50;99.90;;;;;;5074409;28;20024;-63
2021/12/06 09:03:49;;;;;;;21.33;14.63;;;4.60;99.90;;;;;;5074947;28;20028;-62
2021/12/06 09:06:15;;;;;;;22.48;15.32;;;4.70;99.90;;;;;;5075166;28;20486;-62
2021/12/06 09:08:42;;;;;;;21.25;15.45;;;4.70;99.90;;;;;;5074759;28;20033;-63
2021/12/06 09:11:09;;;;;;;24.30;15.50;;;4.70;99.90;;;;;;5075092;28;20025;-62
2021/12/06 09:13:36;;;;;;;21.08;14.57;;;4.70;99.90;;;;;;5074171;28;20071;-63
2021/12/06 09:16:05;;;;;;;21.33;15.15;;;4.70;99.90;;;;;;5075219;28;20429;-62
2021/12/06 09:18:37;;;;;;;21.88;14.43;;;4.80;99.90;;;;;;5074107;28;20128;-62
2021/12/06 09:21:08;;;;;;;19.55;13.85;;;4.80;99.90;;;;;;5074785;28;20028;-62
2021/12/06 09:23:34;;;;;;;22.95;15.38;;;4.90;99.90;;;;;;5074073;28;20020;-61
2021/12/06 09:26:00;;;;;;;17.90;14.05;;;4.90;99.90;;;;;;5074771;28;20032;-61
2021/12/06 09:28:27;;;;;;;21.48;15.25;;;4.90;99.90;;;;;;5074038;28;20040;-62
2021/12/06 09:30:53;;;;;;;23.77;16.40;;;4.90;99.90;;;;;;5074597;28;20033;-61
2021/12/06 09:33:19;;;;;;;26.50;16.02;;;5.00;99.90;;;;;;5074341;28;20061;-62
2021/12/06 09:35:48;;;;;;;23.00;15.48;;;5.00;99.90;;;;;;5073904;28;20028;-61
2021/12/06 09:38:17;;;;;;;24.05;15.48;;;4.90;99.90;;;;;;5074355;28;20074;-61
2021/12/06 09:40:47;;;;;;;23.80;15.55;;;5.00;99.90;;;;;;5086444;28;20042;-62
2021/12/06 09:43:14;;;;;;;23.92;15.35;;;4.90;99.90;;;;;;5094787;28;20039;-61
2021/12/06 09:45:41;;;;;;;24.50;16.40;;;5.00;99.90;;;;;;5093857;28;20060;-61
2021/12/06 09:48:09;;;;;;;21.77;14.77;;;5.10;99.90;;;;;;5094566;28;20028;-62
2021/12/06 09:50:45;;;;;;;20.23;13.43;;;5.20;99.90;;;;;;5094139;28;20024;-61
2021/12/06 09:53:31;;;;;;;21.42;13.88;;;5.20;99.90;;;;;;5094584;28;20042;-61
2021/12/06 09:56:02;;;;;;;19.92;13.63;;;5.30;99.90;;;;;;5094585;28;20050;-61
2021/12/06 09:58:30;;;;;;;21.75;14.07;;;5.30;99.90;;;;;;5093815;28;20058;-61
2021/12/06 10:01:00;;;;;;;20.05;13.55;;;5.40;99.90;;;;;;5094227;28;20043;-61
2021/12/06 10:03:29;;;;;;;21.10;13.95;;;5.40;99.90;;;;;;5093511;28;20067;-62
2021/12/06 10:06:01;;;;;;;21.80;12.73;;;5.40;99.90;;;;;;5093480;28;20023;-61
2021/12/06 10:08:31;;;;;;;23.27;14.90;;;5.40;99.90;;;;;;5093095;28;20060;-59
2021/12/06 10:10:57;;;;;;;19.80;13.43;;;5.40;99.90;;;;;;5093932;28;20024;-61
2021/12/06 10:13:23;;;;;;;22.40;14.40;;;5.40;99.90;;;;;;5092077;28;20032;-61
2021/12/06 10:15:51;;;;;;;25.55;14.10;;;5.40;99.90;;;;;;5092995;28;20059;-62
2021/12/06 10:18:18;;;;;;;20.77;13.77;;;5.40;99.90;;;;;;5093551;28;20028;-62
2021/12/06 10:20:44;;;;;;;21.60;14.80;;;5.50;99.90;;;;;;5093027;28;20059;-62
2021/12/06 10:23:11;;;;;;;19.35;13.65;;;5.50;99.90;;;;;;5093680;28;20043;-62
2021/12/06 10:25:42;;;;;;;19.27;13.43;;;5.60;99.90;;;;;;5093181;28;20032;-62
2021/12/06 10:28:08;;;;;;;18.03;12.57;;;5.70;99.90;;;;;;5093913;28;20032;-60
2021/12/06 10:30:52;;;;;;;19.67;12.85;;;5.80;99.90;;;;;;5093005;28;20028;-61
2021/12/06 10:33:23;;;;;;;21.83;13.40;;;5.80;99.90;;;;;;5092418;28;20373;-62
2021/12/06 10:35:55;;;;;;;18.50;13.00;;;5.80;99.90;;;;;;5093069;28;20035;-62
2021/12/06 10:38:29;;;;;;;21.58;12.23;;;5.80;99.90;;;;;;5092976;28;20036;-62
2021/12/06 10:40:59;;;;;;;23.58;13.45;;;5.80;99.90;;;;;;5093398;28;20042;-62
2021/12/06 10:43:25;;;;;;;22.73;14.82;;;5.70;99.80;;;;;;5093079;28;20473;-62
2021/12/06 10:45:53;;;;;;;19.40;12.38;;;5.70;99.90;;;;;;5092273;28;20051;-62
2021/12/06 10:48:18;;;;;;;22.33;13.45;;;5.70;99.90;;;;;;5093429;28;20028;-62
2021/12/06 10:51:03;;;;;;;18.92;12.65;;;5.70;99.60;;;;;;5092746;28;20111;-62
2021/12/06 10:53:48;;;;;;;19.10;11.95;;;5.60;99.00;;;;;;5093297;28;20023;-62
2021/12/06 10:56:25;;;;;;;18.70;12.77;;;5.50;98.40;;;;;;5093160;28;20039;-62
2021/12/06 10:58:54;;;;;;;17.63;12.10;;;5.40;99.10;;;;;;5090059;28;20039;-62
2021/12/06 11:01:31;;;;;;;24.05;13.90;;;5.40;99.50;;;;;;5092983;28;20028;-62
2021/12/06 11:03:58;;;;;;;22.75;13.50;;;5.40;99.30;;;;;;5093203;28;20119;-62
2021/12/06 11:06:31;;;;;;;23.58;13.95;;;5.40;99.60;;;;;;5093075;28;20016;-62
2021/12/06 11:09:26;;;;;;;20.08;12.13;;;5.30;99.70;;;;;;5092874;28;20480;-62
2021/12/06 11:11:59;;;;;;;19.52;11.60;;;5.30;99.90;;;;;;5092298;28;20032;-62
2021/12/06 11:14:30;;;;;;;18.85;11.93;;;5.30;99.80;;;;;;5092778;28;20024;-62
2021/12/06 11:17:02;;;;;;;19.48;12.65;;;5.30;98.90;;;;;;5092413;28;20031;-62
2021/12/06 11:19:30;;;;;;;19.25;12.75;;;5.20;98.80;;;;;;5092308;28;20040;-62
2021/12/06 11:22:04;;;;;;;20.77;14.20;;;5.20;99.20;;;;;;5091939;28;20077;-62
2021/12/06 11:24:41;;;;;;;23.08;15.25;;;5.20;99.80;;;;;;5092580;28;20047;-61
2021/12/06 11:27:17;;;;;;;21.73;15.38;;;5.20;99.90;;;;;;5092562;28;20058;-61
2021/12/06 11:29:46;;;;;;;21.33;15.38;;;5.30;99.90;;;;;;5091996;28;20032;-61
2021/12/06 11:32:28;;;;;;;20.92;15.63;;;5.30;99.90;;;;;;5092484;28;20028;-62
2021/12/06 11:34:54;;;;;;;24.20;16.33;;;5.20;99.90;;;;;;5092061;28;20062;-62
2021/12/06 11:37:36;;;;;;;23.02;16.00;;;5.20;99.90;;;;;;5092447;28;20111;-61
2021/12/06 11:40:11;;;;;;;23.52;16.27;;;5.20;99.90;;;;;;5092524;28;20461;-60
2021/12/06 11:43:10;;;;;;;26.38;16.17;;;5.20;99.90;;;;;;5092027;28;20039;-61
2021/12/06 11:45:46;;;;;;;24.02;16.02;;;5.20;99.90;;;;;;5076049;28;20044;-61
2021/12/06 11:48:15;;;;;;;22.70;15.02;;;5.20;99.90;;;;;;5089537;28;20024;-61
2021/12/06 11:51:01;;;;;;;20.30;13.73;;;5.20;99.90;;;;;;5091661;28;20047;-61
2021/12/06 11:53:33;;;;;;;20.30;14.07;;;5.10;99.90;;;;;;5092108;28;20067;-62
2021/12/06 11:56:09;;;;;;;21.88;13.75;;;5.10;99.90;;;;;;5092381;28;20115;-62
2021/12/06 11:58:43;;;;;;;26.38;15.45;;;5.10;99.90;;;;;;5092225;28;20451;-63
2021/12/06 12:01:09;;;;;;;23.48;14.85;;;5.10;99.90;;;;;;5092001;28;20480;-61
2021/12/06 12:03:36;;;;;;;18.48;14.07;;;5.10;99.90;;;;;;5091513;28;20032;-63
2021/12/06 12:06:03;;;;;;;24.33;14.75;;;5.10;99.90;;;;;;5091940;28;20024;-62
2021/12/06 12:08:35;;;;;;;18.02;13.18;;;5.20;99.90;;;;;;5092035;28;20043;-61
2021/12/06 12:11:04;;;;;;;15.43;11.77;;;5.20;99.90;;;;;;5092215;28;20377;-62
2021/12/06 12:13:37;;;;;;;21.73;12.52;;;5.20;99.90;;;;;;5091705;28;20039;-61
2021/12/06 12:16:08;;;;;;;19.80;12.38;;;5.20;99.90;;;;;;5091452;28;20023;-62
2021/12/06 12:18:37;;;;;;;19.88;13.20;;;5.20;99.90;;;;;;5091785;28;20036;-61
2021/12/06 12:21:04;;;;;;;21.27;14.00;;;5.20;99.90;;;;;;5091431;28;20032;-61
2021/12/06 12:23:33;;;;;;;23.08;14.13;;;5.20;99.90;;;;;;5091449;28;20032;-61
2021/12/06 12:26:11;;;;;;;22.38;14.65;;;5.20;99.90;;;;;;5091053;28;20165;-61
2021/12/06 12:29:12;;;;;;;22.20;13.30;;;5.20;99.90;;;;;;5091097;28;20380;-61
2021/12/06 12:31:28;;;;;;;21.25;13.75;;;5.30;99.90;;;;;;5094832;28;20153;-61
2021/12/06 12:33:57;;;;;;;23.33;12.45;;;5.30;99.90;;;;;;5095308;28;20169;-61
2021/12/06 12:36:24;;;;;;;17.25;12.93;;;5.30;99.90;;;;;;5095835;28;20020;-61
2021/12/06 12:38:54;;;;;;;16.48;12.18;;;5.30;99.90;;;;;;5095132;28;20036;-61
2021/12/06 12:41:21;;;;;;;16.55;11.30;;;5.30;99.90;;;;;;5095482;28;20541;-60
2021/12/06 12:44:02;;;;;;;19.38;11.13;;;5.30;99.90;;;;;;5094926;28;20077;-62
2021/12/06 12:46:35;;;;;;;17.90;11.00;;;5.30;99.90;;;;;;5095893;28;20055;-61
2021/12/06 12:49:15;;;;;;;17.60;11.15;;;5.30;99.90;;;;;;5095135;28;20491;-61
2021/12/06 12:51:47;;;;;;;20.13;10.77;;;5.30;99.90;;;;;;5094888;28;20020;-62
2021/12/06 12:54:23;;;;;;;14.82;10.73;;;5.30;99.90;;;;;;5095574;28;20103;-62
2021/12/06 12:56:58;;;;;;;16.60;10.52;;;5.30;99.90;;;;;;5094952;28;20028;-62
2021/12/06 12:59:32;;;;;;;17.13;11.85;;;5.30;99.90;;;;;;5095591;28;20028;-62
2021/12/06 13:02:30;;;;;;;18.45;11.10;;;5.30;99.90;;;;;;5094743;28;20346;-62
2021/12/06 13:04:59;;;;;;;20.08;10.52;;;5.30;99.90;;;;;;5093235;28;20073;-62